createdAt,value
2022-09-04T00:02:28.025Z,14.25
2022-09-04T00:05:13.338Z,14.35
2022-09-04T00:07:51.888Z,14.41
2022-09-04T00:10:40.457Z,14.52
2022-09-04T00:13:11.538Z,14.52
2022-09-04T00:15:39.976Z,14.42
2022-09-04T00:18:08.308Z,14.46
2022-09-04T00:20:37.507Z,14.31
2022-09-04T00:23:25.340Z,14.24
2022-09-04T00:25:59.092Z,14.23
2022-09-04T00:28:25.549Z,14.47
2022-09-04T00:31:04.477Z,14.45
2022-09-04T00:33:43.150Z,14.42
2022-09-04T00:36:09.531Z,14.42
2022-09-04T00:38:46.140Z,14.42
2022-09-04T00:41:18.849Z,14.31
2022-09-04T00:44:04.076Z,14.29
2022-09-04T00:46:49.308Z,14.13
2022-09-04T00:49:31.028Z,14.08
2022-09-04T00:52:02.502Z,14.22
2022-09-04T00:54:41.188Z,14.24
2022-09-04T00:57:10.994Z,14.45
2022-09-04T00:59:56.304Z,14.59
2022-09-04T01:02:38.920Z,14.61
2022-09-04T01:05:19.593Z,14.37
2022-09-04T01:07:58.626Z,14.46
2022-09-04T01:10:28.007Z,14.29
2022-09-04T01:13:00.270Z,14.36
2022-09-04T01:15:29.837Z,14.18
2022-09-04T01:18:04.378Z,14.33
2022-09-04T01:21:00.048Z,14.17
2022-09-04T01:23:49.747Z,14.30
2022-09-04T01:26:27.975Z,14.53
2022-09-04T01:29:20.737Z,14.38
2022-09-04T01:32:05.278Z,14.34
2022-09-04T01:34:38.336Z,14.02
2022-09-04T01:37:12.967Z,14.20
2022-09-04T01:39:39.377Z,14.20
2022-09-04T01:42:11.931Z,14.20
2022-09-04T01:44:38.288Z,14.23
2022-09-04T01:47:19.227Z,14.12
2022-09-04T01:49:47.978Z,14.10
2022-09-04T01:52:18.613Z,14.02
2022-09-04T01:54:44.924Z,13.86
2022-09-04T01:57:14.290Z,13.92
2022-09-04T01:59:40.617Z,14.07
2022-09-04T02:02:13.412Z,13.89
2022-09-04T02:04:45.640Z,13.78
2022-09-04T02:07:25.563Z,13.78
2022-09-04T02:10:07.239Z,13.86
2022-09-04T02:12:52.363Z,13.73
2022-09-04T02:15:18.682Z,13.67
2022-09-04T02:17:51.093Z,13.84
2022-09-04T02:20:23.685Z,13.92
2022-09-04T02:23:04.976Z,14.29
2022-09-04T02:25:43.444Z,14.59
2022-09-04T02:28:09.741Z,14.95
2022-09-04T02:30:44.304Z,14.81
2022-09-04T02:33:15.173Z,14.71
2022-09-04T02:35:56.692Z,14.58
2022-09-04T02:38:26.093Z,14.29
2022-09-04T02:40:59.035Z,14.23
2022-09-04T02:43:35.586Z,14.00
2022-09-04T02:46:07.617Z,14.23
2022-09-04T02:48:52.794Z,14.39
2022-09-04T02:51:24.988Z,14.19
2022-09-04T02:53:54.927Z,14.07
2022-09-04T02:56:26.434Z,14.04
2022-09-04T02:59:11.904Z,14.05
2022-09-04T03:01:52.554Z,13.89
2022-09-04T03:04:24.530Z,14.22
2022-09-04T03:06:52.047Z,14.15
2022-09-04T03:09:30.927Z,14.02
2022-09-04T03:12:00.986Z,13.96
2022-09-04T03:14:34.357Z,13.97
2022-09-04T03:17:06.870Z,13.99
2022-09-04T03:19:42.402Z,14.02
2022-09-04T03:22:23.137Z,14.10
2022-09-04T03:25:08.359Z,14.08
2022-09-04T03:27:34.730Z,14.21
2022-09-04T03:30:01.374Z,14.20
2022-09-04T03:32:43.061Z,14.24
2022-09-04T03:35:10.631Z,14.12
2022-09-04T03:37:37.118Z,14.00
2022-09-04T03:40:18.577Z,13.89
2022-09-04T03:42:50.387Z,13.92
2022-09-04T03:45:25.908Z,13.84
2022-09-04T03:48:12.588Z,13.89
2022-09-04T03:50:57.035Z,13.90
2022-09-04T03:53:29.355Z,13.88
2022-09-04T03:56:06.121Z,13.84
2022-09-04T03:58:36.969Z,14.05
2022-09-04T04:01:06.905Z,14.03
2022-09-04T04:03:52.195Z,13.97
2022-09-04T04:06:23.272Z,13.86
2022-09-04T04:08:56.609Z,13.74
2022-09-04T04:11:24.162Z,13.74
2022-09-04T04:13:50.492Z,13.65
2022-09-04T04:16:26.183Z,13.55
2022-09-04T04:19:30.962Z,13.32
2022-09-04T04:22:15.145Z,13.01
2022-09-04T04:24:54.729Z,13.20
2022-09-04T04:27:40.094Z,13.13
2022-09-04T04:30:07.451Z,13.15
2022-09-04T04:32:44.421Z,13.05
2022-09-04T04:35:17.080Z,13.39
2022-09-04T04:38:02.139Z,13.18
2022-09-04T04:40:37.569Z,13.45
2022-09-04T04:43:13.970Z,13.45
2022-09-04T04:45:59.103Z,13.35
2022-09-04T04:48:25.537Z,13.54
2022-09-04T04:50:59.185Z,13.39
2022-09-04T04:53:35.489Z,13.39
2022-09-04T04:56:20.756Z,13.40
2022-09-04T04:58:50.966Z,13.43
2022-09-04T05:01:25.508Z,13.71
2022-09-04T05:03:54.999Z,13.82
2022-09-04T05:06:25.777Z,13.85
2022-09-04T05:09:03.021Z,13.95
2022-09-04T05:11:32.402Z,14.24
2022-09-04T05:13:58.706Z,14.33
2022-09-04T05:16:31.163Z,14.36
2022-09-04T05:18:59.546Z,14.48
2022-09-04T05:21:31.092Z,14.47
2022-09-04T05:24:10.979Z,14.58
2022-09-04T05:26:52.738Z,14.65
2022-09-04T05:29:32.400Z,14.65
2022-09-04T05:32:19.310Z,14.74
2022-09-04T05:34:49.052Z,14.85
2022-09-04T05:37:20.831Z,14.98
2022-09-04T05:39:59.551Z,15.07
2022-09-04T05:42:32.084Z,15.14
2022-09-04T05:45:05.685Z,15.15
2022-09-04T05:47:34.868Z,15.17
2022-09-04T05:50:08.287Z,15.17
2022-09-04T05:52:46.764Z,15.23
2022-09-04T05:55:22.266Z,15.30
2022-09-04T05:57:48.554Z,15.34
2022-09-04T06:00:16.199Z,15.45
2022-09-04T06:02:48.791Z,15.55
2022-09-04T06:05:21.209Z,15.73
2022-09-04T06:07:47.495Z,15.79
2022-09-04T06:10:20.733Z,15.98
2022-09-04T06:13:01.089Z,16.11
2022-09-04T06:15:31.276Z,16.18
2022-09-04T06:18:10.038Z,16.13
2022-09-04T06:20:45.908Z,16.13
2022-09-04T06:23:20.765Z,16.10
2022-09-04T06:26:06.309Z,16.18
2022-09-04T06:28:35.455Z,16.34
2022-09-04T06:31:11.130Z,16.47
2022-09-04T06:33:56.414Z,16.49
2022-09-04T06:36:38.820Z,16.50
2022-09-04T06:39:11.451Z,16.47
2022-09-04T06:41:43.777Z,16.58
2022-09-04T06:44:19.248Z,16.76
2022-09-04T06:46:45.621Z,16.94
2022-09-04T06:49:15.013Z,16.87
2022-09-04T06:51:53.497Z,16.90
2022-09-04T06:54:43.142Z,16.86
2022-09-04T06:57:19.893Z,16.96
2022-09-04T06:59:55.286Z,17.12
2022-09-04T07:02:28.798Z,17.17
2022-09-04T07:05:15.532Z,17.42
2022-09-04T07:07:48.059Z,17.35
2022-09-04T07:10:21.677Z,17.54
2022-09-04T07:13:14.372Z,17.53
2022-09-04T07:15:46.457Z,17.80
2022-09-04T07:18:12.909Z,17.79
2022-09-04T07:21:05.778Z,17.98
2022-09-04T07:23:52.402Z,17.96
2022-09-04T07:26:21.804Z,18.32
2022-09-04T07:28:51.205Z,18.56
2022-09-04T07:31:53.559Z,18.41
2022-09-04T07:34:25.157Z,18.73
2022-09-04T07:37:04.237Z,18.83
2022-09-04T07:39:44.351Z,18.86
2022-09-04T07:42:16.900Z,19.17
2022-09-04T07:44:54.447Z,19.43
2022-09-04T07:47:31.263Z,19.56
2022-09-04T07:50:03.852Z,19.59
2022-09-04T07:52:30.730Z,19.77
2022-09-04T07:55:07.437Z,19.67
2022-09-04T07:57:52.721Z,19.75
2022-09-04T08:00:21.043Z,19.88
2022-09-04T08:03:08.064Z,19.81
2022-09-04T08:05:36.872Z,20.12
2022-09-04T08:08:15.629Z,20.41
2022-09-04T08:10:51.179Z,20.44
2022-09-04T08:13:56.410Z,20.65
2022-09-04T08:16:23.010Z,20.84
2022-09-04T08:19:08.548Z,20.64
2022-09-04T08:21:39.283Z,20.82
2022-09-04T08:24:15.982Z,20.84
2022-09-04T08:26:54.501Z,21.07
2022-09-04T08:29:23.910Z,21.22
2022-09-04T08:31:59.087Z,21.36
2022-09-04T08:34:40.687Z,21.27
2022-09-04T08:37:26.354Z,21.35
2022-09-04T08:39:58.633Z,21.39
2022-09-04T08:42:31.875Z,21.45
2022-09-04T08:45:04.521Z,21.68
2022-09-04T08:47:51.760Z,21.65
2022-09-04T08:50:19.292Z,21.71
2022-09-04T08:52:45.583Z,21.81
2022-09-04T08:55:43.144Z,22.13
2022-09-04T08:58:09.603Z,22.37
2022-09-04T09:00:55.643Z,22.35
2022-09-04T09:03:31.211Z,22.59
2022-09-04T09:05:57.605Z,22.75
2022-09-04T09:08:33.189Z,22.68
2022-09-04T09:11:16.100Z,22.61
2022-09-04T09:13:46.572Z,22.53
2022-09-04T09:16:28.256Z,22.78
2022-09-04T09:19:13.458Z,22.59
2022-09-04T09:21:59.049Z,22.67
2022-09-04T09:24:34.753Z,22.31
2022-09-04T09:27:20.317Z,22.48
2022-09-04T09:30:07.353Z,22.71
2022-09-04T09:32:52.173Z,23.19
2022-09-04T09:35:33.847Z,23.31
2022-09-04T09:38:04.662Z,23.03
2022-09-04T09:40:51.419Z,23.38
2022-09-04T09:43:46.901Z,23.62
2022-09-04T09:46:19.295Z,23.95
2022-09-04T09:49:04.632Z,23.91
2022-09-04T09:51:59.866Z,23.44
2022-09-04T09:54:37.929Z,23.34
2022-09-04T09:57:33.393Z,23.40
2022-09-04T10:00:09.606Z,23.83
2022-09-04T10:02:54.841Z,23.89
2022-09-04T10:05:40.582Z,23.88
2022-09-04T10:08:07.032Z,23.84
2022-09-04T10:10:55.584Z,24.19
2022-09-04T10:13:25.053Z,24.30
2022-09-04T10:15:54.229Z,24.41
2022-09-04T10:18:20.575Z,24.52
2022-09-04T10:20:55.443Z,24.46
2022-09-04T10:23:25.718Z,24.30
2022-09-04T10:26:10.696Z,23.98
2022-09-04T10:28:59.537Z,24.79
2022-09-04T10:31:44.802Z,24.67
2022-09-04T10:34:29.966Z,24.92
2022-09-04T10:37:04.129Z,24.88
2022-09-04T10:39:54.235Z,25.23
2022-09-04T10:42:26.578Z,25.47
2022-09-04T10:45:11.719Z,25.69
2022-09-04T10:47:47.415Z,25.46
2022-09-04T10:50:20.557Z,25.44
2022-09-04T10:52:48.501Z,25.27
2022-09-04T10:55:14.845Z,25.60
2022-09-04T10:57:41.184Z,24.95
2022-09-04T11:00:07.921Z,25.34
2022-09-04T11:02:53.291Z,25.81
2022-09-04T11:05:32.222Z,25.89
2022-09-04T11:08:12.930Z,25.93
2022-09-04T11:10:40.301Z,26.36
2022-09-04T11:13:25.997Z,26.11
2022-09-04T11:15:56.011Z,26.27
2022-09-04T11:18:28.445Z,25.88
2022-09-04T11:21:19.167Z,26.31
2022-09-04T11:24:07.802Z,26.30
2022-09-04T11:26:47.340Z,26.11
2022-09-04T11:29:32.017Z,26.16
2022-09-04T11:32:12.086Z,26.63
2022-09-04T11:34:57.391Z,26.88
2022-09-04T11:37:43.429Z,27.34
2022-09-04T11:40:09.829Z,25.83
2022-09-04T11:43:02.657Z,24.80
2022-09-04T11:45:35.049Z,25.67
2022-09-04T11:48:09.590Z,26.56
2022-09-04T11:51:01.485Z,26.10
2022-09-04T11:53:46.738Z,27.34
2022-09-04T11:56:16.069Z,27.56
2022-09-04T11:59:01.362Z,27.49
2022-09-04T12:01:27.699Z,27.66
2022-09-04T12:04:14.643Z,27.55
2022-09-04T12:07:00.086Z,27.64
2022-09-04T12:09:36.066Z,26.92
2022-09-04T12:12:22.513Z,27.03
2022-09-04T12:15:07.501Z,26.91
2022-09-04T12:17:44.504Z,27.13
2022-09-04T12:20:29.784Z,28.02
2022-09-04T12:22:56.154Z,28.55
2022-09-04T12:25:49.675Z,29.09
2022-09-04T12:28:54.417Z,29.09
2022-09-04T12:31:20.821Z,28.08
2022-09-04T12:33:56.815Z,28.17
2022-09-04T12:36:42.226Z,27.81
2022-09-04T12:39:34.337Z,27.75
2022-09-04T12:42:19.487Z,27.52
2022-09-04T12:44:52.064Z,26.60
2022-09-04T12:47:21.789Z,26.70
2022-09-04T12:50:06.980Z,26.64
2022-09-04T12:52:36.500Z,26.16
2022-09-04T12:55:41.657Z,26.49
2022-09-04T12:58:21.257Z,26.59
2022-09-04T13:00:56.856Z,27.37
2022-09-04T13:03:28.051Z,27.84
2022-09-04T13:06:04.295Z,26.96
2022-09-04T13:08:47.053Z,26.78
2022-09-04T13:11:22.697Z,27.36
2022-09-04T13:13:56.649Z,28.15
2022-09-04T13:16:32.450Z,28.53
2022-09-04T13:19:09.710Z,28.83
2022-09-04T13:21:44.392Z,28.51
2022-09-04T13:24:19.713Z,27.99
2022-09-04T13:27:00.697Z,28.24
2022-09-04T13:29:28.115Z,27.70
2022-09-04T13:31:54.540Z,27.84
2022-09-04T13:34:20.864Z,27.75
2022-09-04T13:36:57.252Z,28.03
2022-09-04T13:39:39.093Z,28.28
2022-09-04T13:42:11.503Z,28.12
2022-09-04T13:44:58.168Z,28.63
2022-09-04T13:47:32.724Z,28.39
2022-09-04T13:50:08.364Z,28.99
2022-09-04T13:52:45.677Z,29.03
2022-09-04T13:55:17.962Z,28.98
2022-09-04T13:57:57.325Z,29.31
2022-09-04T14:00:24.514Z,28.56
2022-09-04T14:02:58.699Z,28.47
2022-09-04T14:05:25.656Z,27.84
2022-09-04T14:07:57.527Z,28.67
2022-09-04T14:10:27.454Z,28.52
2022-09-04T14:13:04.396Z,28.48
2022-09-04T14:15:33.742Z,28.69
2022-09-04T14:18:08.181Z,28.99
2022-09-04T14:21:02.462Z,27.96
2022-09-04T14:23:29.802Z,27.19
2022-09-04T14:25:57.210Z,27.34
2022-09-04T14:28:35.374Z,27.33
2022-09-04T14:31:11.132Z,27.09
2022-09-04T14:33:49.988Z,27.16
2022-09-04T14:36:21.657Z,27.19
2022-09-04T14:38:54.417Z,27.16
2022-09-04T14:41:20.967Z,26.87
2022-09-04T14:44:01.295Z,26.86
2022-09-04T14:46:39.303Z,27.17
2022-09-04T14:49:06.499Z,27.23
2022-09-04T14:51:35.088Z,27.29
2022-09-04T14:54:01.946Z,26.83
2022-09-04T14:56:31.443Z,26.83
2022-09-04T14:59:02.500Z,26.60
2022-09-04T15:01:29.881Z,26.39
2022-09-04T15:04:17.492Z,26.49
2022-09-04T15:07:07.775Z,26.46
2022-09-04T15:09:36.138Z,26.49
2022-09-04T15:12:25.945Z,26.39
2022-09-04T15:14:54.520Z,26.46
2022-09-04T15:17:26.292Z,26.25
2022-09-04T15:19:55.037Z,26.27
2022-09-04T15:22:26.342Z,26.16
2022-09-04T15:24:58.434Z,26.11
2022-09-04T15:27:32.874Z,26.03
2022-09-04T15:30:03.440Z,25.98
2022-09-04T15:32:36.827Z,25.92
2022-09-04T15:35:23.231Z,25.99
2022-09-04T15:37:50.415Z,25.69
2022-09-04T15:40:31.981Z,25.62
2022-09-04T15:43:03.865Z,25.59
2022-09-04T15:45:36.376Z,25.57
2022-09-04T15:48:06.107Z,25.44
2022-09-04T15:50:36.654Z,25.34
2022-09-04T15:53:20.678Z,25.35
2022-09-04T15:55:54.385Z,25.39
2022-09-04T15:58:21.099Z,25.17
2022-09-04T16:01:16.845Z,25.27
2022-09-04T16:04:04.907Z,25.13
2022-09-04T16:06:54.732Z,24.98
2022-09-04T16:09:30.066Z,25.00
2022-09-04T16:11:59.889Z,24.81
2022-09-04T16:14:30.096Z,24.69
2022-09-04T16:17:07.113Z,24.72
2022-09-04T16:19:42.441Z,24.62
2022-09-04T16:22:18.520Z,24.32
2022-09-04T16:24:47.023Z,24.11
2022-09-04T16:27:15.360Z,24.10
2022-09-04T16:29:53.514Z,23.94
2022-09-04T16:32:22.360Z,23.94
2022-09-04T16:34:56.794Z,23.91
2022-09-04T16:37:28.523Z,23.89
2022-09-04T16:40:01.014Z,23.94
2022-09-04T16:42:43.919Z,24.06
2022-09-04T16:45:17.056Z,24.03
2022-09-04T16:47:44.128Z,24.04
2022-09-04T16:50:28.987Z,23.99
2022-09-04T16:52:58.860Z,23.85
2022-09-04T16:55:52.369Z,23.92
2022-09-04T16:58:20.158Z,23.67
2022-09-04T17:01:14.339Z,23.61
2022-09-04T17:03:43.276Z,23.17
2022-09-04T17:06:28.622Z,22.75
2022-09-04T17:09:08.539Z,22.37
2022-09-04T17:11:45.430Z,22.31
2022-09-04T17:14:22.724Z,22.19
2022-09-04T17:16:57.220Z,22.03
2022-09-04T17:19:23.675Z,22.23
2022-09-04T17:28:58.137Z,22.20
2022-09-04T17:29:07.873Z,22.15
2022-09-04T17:29:11.313Z,22.07
2022-09-04T17:30:50.370Z,21.93
2022-09-04T17:35:40.270Z,21.93
2022-09-04T17:40:36.550Z,21.93
2022-09-04T17:40:49.875Z,21.85
2022-09-04T17:42:09.515Z,21.73
2022-09-04T17:44:46.025Z,21.61
2022-09-04T17:47:15.356Z,21.52
2022-09-04T17:49:44.023Z,21.59
2022-09-04T17:52:11.812Z,21.64
2022-09-04T17:54:40.363Z,21.63
2022-09-04T17:57:18.925Z,21.66
2022-09-04T17:59:49.164Z,21.71
2022-09-04T18:02:22.841Z,21.89
2022-09-04T18:05:13.530Z,21.73
2022-09-04T18:08:08.037Z,21.72
2022-09-04T18:10:36.988Z,21.56
2022-09-04T18:13:30.395Z,21.71
2022-09-04T18:16:19.598Z,21.89
2022-09-04T18:18:52.901Z,21.89
2022-09-04T18:21:24.132Z,21.67
2022-09-04T18:23:52.686Z,21.63
2022-09-04T18:26:40.578Z,21.42
2022-09-04T18:30:55.389Z,21.22
2022-09-04T18:37:10.498Z,21.10
2022-09-04T18:37:19.201Z,20.84
2022-09-04T18:38:03.463Z,20.88
2022-09-04T18:42:10.648Z,20.92
2022-09-04T18:50:22.580Z,20.73
2022-09-04T18:50:32.229Z,20.62
2022-09-04T18:50:50.778Z,20.54
2022-09-04T18:51:59.605Z,20.79
2022-09-04T18:54:31.142Z,20.80
2022-09-04T18:57:00.790Z,20.89
2022-09-04T18:59:36.290Z,20.96
2022-09-04T19:02:04.694Z,20.82
2022-09-04T19:04:35.715Z,20.98
2022-09-04T19:07:07.044Z,20.98
2022-09-04T19:09:55.743Z,20.88
2022-09-04T19:12:23.574Z,20.83
2022-09-04T19:14:49.958Z,20.55
2022-09-04T19:17:21.058Z,20.65
2022-09-04T19:19:49.861Z,20.42
2022-09-04T19:22:17.965Z,20.33
2022-09-04T19:24:49.075Z,20.27
2022-09-04T19:27:25.100Z,20.19
2022-09-04T19:30:18.942Z,20.14
2022-09-04T19:32:59.641Z,19.96
2022-09-04T19:35:30.034Z,19.87
2022-09-04T19:41:46.093Z,19.89
2022-09-04T19:45:57.876Z,19.52
2022-09-04T19:46:14.823Z,19.55
2022-09-04T19:46:47.208Z,19.63
2022-09-04T19:51:30.892Z,19.60
2022-09-04T19:53:31.573Z,19.55
2022-09-04T19:55:24.384Z,19.40
2022-09-04T19:57:52.229Z,19.47
2022-09-04T20:00:42.111Z,19.34
2022-09-04T20:03:05.499Z,19.29
2022-09-04T20:05:32.874Z,19.36
2022-09-04T20:08:02.435Z,19.13
2022-09-04T20:10:32.885Z,19.17
2022-09-04T20:13:02.083Z,19.14
2022-09-04T20:15:32.012Z,19.20
2022-09-04T20:18:04.144Z,19.09
2022-09-04T20:20:46.114Z,19.07
2022-09-04T20:23:35.793Z,18.96
2022-09-04T20:26:02.130Z,19.03
2022-09-04T20:28:48.434Z,18.90
2022-09-04T20:31:35.881Z,18.82
2022-09-04T20:34:09.949Z,18.72
2022-09-04T20:36:37.428Z,18.65
2022-09-04T20:39:33.468Z,18.67
2022-09-04T20:42:10.045Z,18.50
2022-09-04T20:44:36.704Z,18.49
2022-09-04T20:52:40.454Z,18.57
2022-09-04T20:52:59.378Z,18.45
2022-09-04T20:53:34.875Z,18.56
2022-09-04T20:56:36.110Z,18.47
2022-09-04T21:03:05.579Z,18.58
2022-09-04T21:03:23.713Z,18.74
2022-09-04T21:04:48.609Z,18.58
2022-09-04T21:07:27.134Z,18.55
2022-09-04T21:09:55.477Z,18.63
2022-09-04T21:12:27.850Z,18.51
2022-09-04T21:14:55.146Z,18.51
2022-09-04T21:17:34.643Z,18.31
2022-09-04T21:20:16.666Z,18.44
2022-09-04T21:22:48.529Z,18.29
2022-09-04T21:25:21.176Z,18.47
2022-09-04T21:27:57.961Z,18.39
2022-09-04T21:30:37.481Z,18.36
2022-09-04T21:33:28.887Z,18.52
2022-09-04T21:36:11.725Z,18.48
2022-09-04T21:38:54.069Z,18.34
2022-09-04T21:41:26.971Z,18.52
2022-09-04T21:43:53.261Z,18.32
2022-09-04T21:46:36.053Z,18.38
2022-09-04T21:49:26.492Z,18.30
2022-09-04T21:52:02.598Z,18.34
2022-09-04T21:54:37.841Z,18.19
2022-09-04T22:02:29.225Z,18.31
2022-09-04T22:02:41.326Z,18.18
2022-09-04T22:03:02.463Z,18.37
2022-09-04T22:05:35.859Z,18.27
2022-09-04T22:13:31.082Z,18.32
2022-09-04T22:13:38.066Z,18.27
2022-09-04T22:14:17.303Z,18.31
2022-09-04T22:16:52.773Z,18.56
2022-09-04T22:19:26.674Z,18.34
2022-09-04T22:22:03.686Z,18.34
2022-09-04T22:24:33.379Z,18.30
2022-09-04T22:27:08.811Z,18.20
2022-09-04T22:29:40.517Z,18.18
2022-09-04T22:32:10.105Z,18.25
2022-09-04T22:34:52.512Z,18.24
2022-09-04T22:37:37.657Z,18.30
2022-09-04T22:40:27.439Z,18.36
2022-09-04T22:43:02.923Z,18.42
2022-09-04T22:45:32.320Z,18.43
2022-09-04T22:48:10.750Z,18.47
2022-09-04T22:50:50.354Z,18.45
2022-09-04T22:53:27.820Z,18.43
2022-09-04T22:56:23.397Z,18.44
2022-09-04T22:59:20.380Z,18.48
2022-09-04T23:02:14.179Z,18.53
2022-09-04T23:04:59.111Z,18.49
2022-09-04T23:09:03.111Z,18.49
2022-09-04T23:13:49.990Z,18.55
2022-09-04T23:13:52.086Z,18.46
2022-09-04T23:16:12.650Z,18.46
2022-09-04T23:22:09.964Z,18.32
2022-09-04T23:26:33.321Z,18.31
2022-09-04T23:26:43.386Z,18.04
2022-09-04T23:27:43.734Z,18.12
2022-09-04T23:30:13.472Z,18.02
2022-09-04T23:32:58.776Z,18.05
2022-09-04T23:35:42.055Z,18.12
2022-09-04T23:38:26.596Z,18.23
2022-09-04T23:41:13.880Z,18.12
2022-09-04T23:43:49.702Z,18.08
2022-09-04T23:46:17.937Z,18.04
2022-09-04T23:48:44.283Z,18.04
2022-09-04T23:51:13.719Z,18.03
2022-09-04T23:53:43.146Z,17.97
2022-09-04T23:56:09.449Z,18.14
2022-09-04T23:58:54.513Z,18.12
